sensor_id;sensor_type;location;lat;lon;timestamp;pressure;altitude;pressure_sealevel;temperature;humidity
47883;BME280;37739;50.350;7.578;2022-08-19T00:00:56;99442.63;;;21.59;57.93
47883;BME280;37739;50.350;7.578;2022-08-19T00:03:21;99441.75;;;21.59;58.01
47883;BME280;37739;50.350;7.578;2022-08-19T00:05:46;99453.09;;;21.58;58.07
47883;BME280;37739;50.350;7.578;2022-08-19T00:08:12;99452.19;;;21.59;58.08
47883;BME280;37739;50.350;7.578;2022-08-19T00:10:37;99459.19;;;21.58;57.96
47883;BME280;37739;50.350;7.578;2022-08-19T00:13:02;99457.44;;;21.55;58.23
47883;BME280;37739;50.350;7.578;2022-08-19T00:15:30;99454.00;;;21.53;58.36
47883;BME280;37739;50.350;7.578;2022-08-19T00:17:58;99451.38;;;21.53;58.36
47883;BME280;37739;50.350;7.578;2022-08-19T00:20:24;99452.22;;;21.55;58.20
47883;BME280;37739;50.350;7.578;2022-08-19T00:22:49;99455.72;;;21.58;58.01
47883;BME280;37739;50.350;7.578;2022-08-19T00:25:17;99459.19;;;21.58;58.25
47883;BME280;37739;50.350;7.578;2022-08-19T00:27:48;99456.50;;;21.61;58.08
47883;BME280;37739;50.350;7.578;2022-08-19T00:30:13;99448.66;;;21.64;57.96
47883;BME280;37739;50.350;7.578;2022-08-19T00:32:39;99457.41;;;21.60;58.19
47883;BME280;37739;50.350;7.578;2022-08-19T00:35:05;99455.00;;;21.40;58.77
47883;BME280;37739;50.350;7.578;2022-08-19T00:37:33;99458.59;;;21.33;58.86
47883;BME280;37739;50.350;7.578;2022-08-19T00:40:00;99445.44;;;21.42;58.60
47883;BME280;37739;50.350;7.578;2022-08-19T00:42:25;99437.53;;;21.50;58.50
47883;BME280;37739;50.350;7.578;2022-08-19T00:44:56;99438.38;;;21.52;58.37
47883;BME280;37739;50.350;7.578;2022-08-19T00:47:21;99434.03;;;21.52;58.33
47883;BME280;37739;50.350;7.578;2022-08-19T00:49:49;99436.66;;;21.51;58.39
47883;BME280;37739;50.350;7.578;2022-08-19T00:52:35;99431.44;;;21.51;59.06
47883;BME280;37739;50.350;7.578;2022-08-19T00:55:07;99436.66;;;21.51;58.43
47883;BME280;37739;50.350;7.578;2022-08-19T00:57:38;99443.66;;;21.47;58.50
47883;BME280;37739;50.350;7.578;2022-08-19T01:00:11;99441.94;;;21.45;59.08
47883;BME280;37739;50.350;7.578;2022-08-19T01:02:38;99442.84;;;21.42;59.29
47883;BME280;37739;50.350;7.578;2022-08-19T01:05:06;99443.78;;;21.33;59.63
47883;BME280;37739;50.350;7.578;2022-08-19T01:07:34;99436.81;;;21.35;59.39
47883;BME280;37739;50.350;7.578;2022-08-19T01:10:00;99435.91;;;21.38;59.34
47883;BME280;37739;50.350;7.578;2022-08-19T01:12:26;99428.06;;;21.38;59.31
47883;BME280;37739;50.350;7.578;2022-08-19T01:14:52;99428.91;;;21.40;59.23
47883;BME280;37739;50.350;7.578;2022-08-19T01:17:19;99431.59;;;21.35;59.23
47883;BME280;37739;50.350;7.578;2022-08-19T01:19:47;99427.28;;;21.33;59.40
47883;BME280;37739;50.350;7.578;2022-08-19T01:25:00;99413.34;;;21.34;58.98
47883;BME280;37739;50.350;7.578;2022-08-19T01:27:26;99419.47;;;21.31;58.96
47883;BME280;37739;50.350;7.578;2022-08-19T01:29:51;99419.50;;;21.30;59.10
47883;BME280;37739;50.350;7.578;2022-08-19T01:32:19;99422.09;;;21.28;59.24
47883;BME280;37739;50.350;7.578;2022-08-19T01:34:47;99425.63;;;21.26;59.18
47883;BME280;37739;50.350;7.578;2022-08-19T01:37:13;99424.81;;;21.22;59.21
47883;BME280;37739;50.350;7.578;2022-08-19T01:39:42;99425.72;;;21.20;59.60
47883;BME280;37739;50.350;7.578;2022-08-19T01:42:09;99416.16;;;21.17;59.48
47883;BME280;37739;50.350;7.578;2022-08-19T01:44:40;99417.06;;;21.14;59.53
47883;BME280;37739;50.350;7.578;2022-08-19T01:47:08;99417.13;;;21.10;59.76
47883;BME280;37739;50.350;7.578;2022-08-19T01:49:34;99418.91;;;21.06;59.96
47883;BME280;37739;50.350;7.578;2022-08-19T01:52:00;99411.13;;;21.03;60.13
47883;BME280;37739;50.350;7.578;2022-08-19T01:54:30;99417.25;;;21.01;60.04
47883;BME280;37739;50.350;7.578;2022-08-19T01:57:04;99409.50;;;20.94;60.72
47883;BME280;37739;50.350;7.578;2022-08-19T01:59:30;99409.66;;;20.81;60.80
47883;BME280;37739;50.350;7.578;2022-08-19T02:01:56;99405.53;;;20.59;61.35
47883;BME280;37739;50.350;7.578;2022-08-19T02:04:22;99407.22;;;20.64;61.19
47883;BME280;37739;50.350;7.578;2022-08-19T02:06:48;99405.44;;;20.67;61.30
47883;BME280;37739;50.350;7.578;2022-08-19T02:09:13;99405.38;;;20.75;60.90
47883;BME280;37739;50.350;7.578;2022-08-19T02:11:41;99403.59;;;20.77;60.78
47883;BME280;37739;50.350;7.578;2022-08-19T02:14:08;99400.09;;;20.79;61.00
47883;BME280;37739;50.350;7.578;2022-08-19T02:16:35;99405.31;;;20.78;60.91
47883;BME280;37739;50.350;7.578;2022-08-19T02:19:00;99408.84;;;20.75;61.11
47883;BME280;37739;50.350;7.578;2022-08-19T02:21:29;99412.34;;;20.73;61.31
47883;BME280;37739;50.350;7.578;2022-08-19T02:23:55;99414.09;;;20.71;61.22
47883;BME280;37739;50.350;7.578;2022-08-19T02:26:23;99427.16;;;20.69;61.29
47883;BME280;37739;50.350;7.578;2022-08-19T02:28:49;99436.69;;;20.69;61.56
47883;BME280;37739;50.350;7.578;2022-08-19T02:31:19;99417.63;;;20.65;61.23
47883;BME280;37739;50.350;7.578;2022-08-19T02:33:47;99410.69;;;20.64;61.21
47883;BME280;37739;50.350;7.578;2022-08-19T02:36:15;99411.59;;;20.60;61.57
47883;BME280;37739;50.350;7.578;2022-08-19T02:38:44;99415.94;;;20.56;61.84
47883;BME280;37739;50.350;7.578;2022-08-19T02:41:23;99416.84;;;20.52;62.70
47883;BME280;37739;50.350;7.578;2022-08-19T02:43:51;99427.28;;;20.51;61.95
47883;BME280;37739;50.350;7.578;2022-08-19T02:46:22;99424.69;;;20.51;61.99
47883;BME280;37739;50.350;7.578;2022-08-19T02:48:53;99432.47;;;20.54;61.73
47883;BME280;37739;50.350;7.578;2022-08-19T02:51:26;99434.25;;;20.52;62.19
47883;BME280;37739;50.350;7.578;2022-08-19T02:53:52;99436.03;;;20.45;62.17
47883;BME280;37739;50.350;7.578;2022-08-19T02:56:19;99422.19;;;20.40;62.30
47883;BME280;37739;50.350;7.578;2022-08-19T02:58:45;99425.66;;;20.40;62.03
47883;BME280;37739;50.350;7.578;2022-08-19T03:01:22;99422.16;;;20.42;62.58
47883;BME280;37739;50.350;7.578;2022-08-19T03:03:51;99424.78;;;20.40;62.30
47883;BME280;37739;50.350;7.578;2022-08-19T03:06:17;99429.13;;;20.38;62.28
47883;BME280;37739;50.350;7.578;2022-08-19T03:08:47;99428.28;;;20.37;62.35
47883;BME280;37739;50.350;7.578;2022-08-19T03:11:23;99434.34;;;20.39;62.88
47883;BME280;37739;50.350;7.578;2022-08-19T03:13:48;99443.91;;;20.37;62.55
47883;BME280;37739;50.350;7.578;2022-08-19T03:16:20;99440.44;;;20.35;62.45
47883;BME280;37739;50.350;7.578;2022-08-19T03:18:51;99444.81;;;20.33;62.42
47883;BME280;37739;50.350;7.578;2022-08-19T03:21:20;99446.56;;;20.31;62.50
47883;BME280;37739;50.350;7.578;2022-08-19T03:23:47;99448.31;;;20.31;62.73
47883;BME280;37739;50.350;7.578;2022-08-19T03:26:15;99450.91;;;20.31;62.47
47883;BME280;37739;50.350;7.578;2022-08-19T03:28:44;99450.94;;;20.28;62.99
47883;BME280;37739;50.350;7.578;2022-08-19T03:31:19;99448.31;;;20.28;62.77
47883;BME280;37739;50.350;7.578;2022-08-19T03:33:46;99444.88;;;20.27;62.99
47883;BME280;37739;50.350;7.578;2022-08-19T03:36:13;99446.63;;;20.20;63.06
47883;BME280;37739;50.350;7.578;2022-08-19T03:38:43;99444.94;;;20.16;63.19
47883;BME280;37739;50.350;7.578;2022-08-19T03:41:12;99442.31;;;20.19;63.05
47883;BME280;37739;50.350;7.578;2022-08-19T03:43:39;99442.34;;;20.16;63.24
47883;BME280;37739;50.350;7.578;2022-08-19T03:46:08;99450.16;;;20.16;63.54
47883;BME280;37739;50.350;7.578;2022-08-19T03:48:36;99444.13;;;20.11;63.75
47883;BME280;37739;50.350;7.578;2022-08-19T03:51:05;99440.69;;;20.09;63.44
47883;BME280;37739;50.350;7.578;2022-08-19T03:53:32;99444.06;;;20.17;63.36
47883;BME280;37739;50.350;7.578;2022-08-19T03:56:02;99451.88;;;20.19;63.28
47883;BME280;37739;50.350;7.578;2022-08-19T03:58:29;99454.50;;;20.17;63.56
47883;BME280;37739;50.350;7.578;2022-08-19T04:00:58;99461.47;;;20.15;63.46
47883;BME280;37739;50.350;7.578;2022-08-19T04:03:26;99454.56;;;20.08;63.63
47883;BME280;37739;50.350;7.578;2022-08-19T04:05:54;99459.81;;;20.04;64.09
47883;BME280;37739;50.350;7.578;2022-08-19T04:08:22;99455.47;;;20.06;63.66
47883;BME280;37739;50.350;7.578;2022-08-19T04:10:48;99452.97;;;19.90;64.63
47883;BME280;37739;50.350;7.578;2022-08-19T04:13:15;99446.91;;;19.87;64.22
47883;BME280;37739;50.350;7.578;2022-08-19T04:15:42;99448.56;;;19.97;63.97
47883;BME280;37739;50.350;7.578;2022-08-19T04:18:13;99461.56;;;19.98;63.91
47883;BME280;37739;50.350;7.578;2022-08-19T04:20:42;99459.81;;;19.99;63.95
47883;BME280;37739;50.350;7.578;2022-08-19T04:23:08;99468.50;;;20.01;63.93
47883;BME280;37739;50.350;7.578;2022-08-19T04:25:40;99463.28;;;20.03;64.04
47883;BME280;37739;50.350;7.578;2022-08-19T04:28:07;99469.38;;;20.02;63.92
47883;BME280;37739;50.350;7.578;2022-08-19T04:30:42;99470.25;;;19.99;64.49
47883;BME280;37739;50.350;7.578;2022-08-19T04:33:09;99471.09;;;20.01;64.19
47883;BME280;37739;50.350;7.578;2022-08-19T04:35:40;99465.03;;;19.99;64.23
47883;BME280;37739;50.350;7.578;2022-08-19T04:38:09;99475.50;;;19.91;64.39
47883;BME280;37739;50.350;7.578;2022-08-19T04:40:40;99481.56;;;19.92;64.89
47883;BME280;37739;50.350;7.578;2022-08-19T04:43:27;99484.16;;;19.92;64.10
47883;BME280;37739;50.350;7.578;2022-08-19T04:45:53;99488.50;;;19.90;64.75
47883;BME280;37739;50.350;7.578;2022-08-19T04:48:21;99485.91;;;19.91;64.57
47883;BME280;37739;50.350;7.578;2022-08-19T04:50:55;99481.56;;;19.92;64.63
47883;BME280;37739;50.350;7.578;2022-08-19T04:53:28;99485.91;;;19.91;64.97
47883;BME280;37739;50.350;7.578;2022-08-19T04:55:55;99487.66;;;19.94;64.62
47883;BME280;37739;50.350;7.578;2022-08-19T04:58:22;99488.50;;;19.91;64.45
47883;BME280;37739;50.350;7.578;2022-08-19T05:00:50;99487.63;;;19.97;64.33
47883;BME280;37739;50.350;7.578;2022-08-19T05:03:19;99487.63;;;19.97;64.40
47883;BME280;37739;50.350;7.578;2022-08-19T05:05:45;99492.81;;;19.97;64.60
47883;BME280;37739;50.350;7.578;2022-08-19T05:08:14;99488.50;;;19.93;64.86
47883;BME280;37739;50.350;7.578;2022-08-19T05:10:44;99482.44;;;19.91;64.89
47883;BME280;37739;50.350;7.578;2022-08-19T05:13:10;99480.69;;;19.94;64.55
47883;BME280;37739;50.350;7.578;2022-08-19T05:15:40;99483.31;;;19.93;65.01
47883;BME280;37739;50.350;7.578;2022-08-19T05:18:08;99486.75;;;19.96;64.90
47883;BME280;37739;50.350;7.578;2022-08-19T05:20:54;99491.97;;;19.98;64.63
47883;BME280;37739;50.350;7.578;2022-08-19T05:23:38;99491.91;;;20.04;64.40
47883;BME280;37739;50.350;7.578;2022-08-19T05:26:06;99487.59;;;20.00;64.66
47883;BME280;37739;50.350;7.578;2022-08-19T05:28:35;99482.34;;;20.03;64.70
47883;BME280;37739;50.350;7.578;2022-08-19T05:31:01;99487.59;;;20.02;64.81
47883;BME280;37739;50.350;7.578;2022-08-19T05:33:29;99483.25;;;19.97;64.98
47883;BME280;37739;50.350;7.578;2022-08-19T05:35:57;99489.41;;;19.84;65.37
47883;BME280;37739;50.350;7.578;2022-08-19T05:38:23;99485.94;;;19.85;65.79
47883;BME280;37739;50.350;7.578;2022-08-19T05:40:49;99485.00;;;19.95;65.25
47883;BME280;37739;50.350;7.578;2022-08-19T05:43:17;99497.03;;;20.16;64.36
47883;BME280;37739;50.350;7.578;2022-08-19T05:45:43;99488.25;;;20.31;63.90
47883;BME280;37739;50.350;7.578;2022-08-19T05:48:10;99489.94;;;20.37;63.70
47883;BME280;37739;50.350;7.578;2022-08-19T05:50:39;99494.25;;;20.41;63.79
47883;BME280;37739;50.350;7.578;2022-08-19T05:53:05;99491.75;;;20.27;64.34
47883;BME280;37739;50.350;7.578;2022-08-19T05:55:31;99484.94;;;20.09;65.19
47883;BME280;37739;50.350;7.578;2022-08-19T05:57:59;99491.91;;;20.01;65.12
47883;BME280;37739;50.350;7.578;2022-08-19T06:00:26;99492.66;;;20.22;64.88
47883;BME280;37739;50.350;7.578;2022-08-19T06:02:54;99488.19;;;20.37;64.33
47883;BME280;37739;50.350;7.578;2022-08-19T06:05:24;99486.56;;;20.24;64.36
47883;BME280;37739;50.350;7.578;2022-08-19T06:07:50;99492.63;;;20.26;64.57
47883;BME280;37739;50.350;7.578;2022-08-19T06:10:15;99497.78;;;20.34;64.20
47883;BME280;37739;50.350;7.578;2022-08-19T06:12:40;99503.72;;;20.51;63.89
47883;BME280;37739;50.350;7.578;2022-08-19T06:15:09;99508.00;;;20.57;63.61
47883;BME280;37739;50.350;7.578;2022-08-19T06:17:37;99500.16;;;20.65;63.48
47883;BME280;37739;50.350;7.578;2022-08-19T06:20:09;99501.84;;;20.69;63.29
47883;BME280;37739;50.350;7.578;2022-08-19T06:22:42;99497.44;;;20.77;63.19
47883;BME280;37739;50.350;7.578;2022-08-19T06:25:08;99500.94;;;20.76;63.21
47883;BME280;37739;50.350;7.578;2022-08-19T06:27:37;99507.88;;;20.77;63.36
47883;BME280;37739;50.350;7.578;2022-08-19T06:30:04;99518.25;;;20.85;63.12
47883;BME280;37739;50.350;7.578;2022-08-19T06:32:30;99513.88;;;20.87;63.35
47883;BME280;37739;50.350;7.578;2022-08-19T06:34:57;99516.44;;;20.90;63.10
47883;BME280;37739;50.350;7.578;2022-08-19T06:37:23;99525.06;;;20.96;62.84
47883;BME280;37739;50.350;7.578;2022-08-19T06:39:49;99531.91;;;21.05;62.76
47883;BME280;37739;50.350;7.578;2022-08-19T06:42:18;99531.91;;;21.10;62.67
47883;BME280;37739;50.350;7.578;2022-08-19T06:44:47;99536.19;;;21.14;62.81
47883;BME280;37739;50.350;7.578;2022-08-19T06:47:18;99541.50;;;21.03;63.32
47883;BME280;37739;50.350;7.578;2022-08-19T06:49:44;99550.16;;;21.07;63.36
47883;BME280;37739;50.350;7.578;2022-08-19T06:52:10;99549.09;;;21.25;62.72
47883;BME280;37739;50.350;7.578;2022-08-19T06:54:38;99550.75;;;21.36;62.40
47883;BME280;37739;50.350;7.578;2022-08-19T06:57:05;99546.28;;;21.48;62.09
47883;BME280;37739;50.350;7.578;2022-08-19T06:59:34;99554.09;;;21.49;62.41
47883;BME280;37739;50.350;7.578;2022-08-19T07:02:05;99565.56;;;21.34;63.02
47883;BME280;37739;50.350;7.578;2022-08-19T07:04:33;99562.00;;;21.40;62.94
47883;BME280;37739;50.350;7.578;2022-08-19T07:07:07;99564.56;;;21.43;63.50
47883;BME280;37739;50.350;7.578;2022-08-19T07:09:36;99564.53;;;21.51;63.08
47883;BME280;37739;50.350;7.578;2022-08-19T07:12:03;99566.03;;;21.70;62.90
47883;BME280;37739;50.350;7.578;2022-08-19T07:14:29;99565.19;;;21.67;63.35
47883;BME280;37739;50.350;7.578;2022-08-19T07:16:58;99568.63;;;21.73;62.91
47883;BME280;37739;50.350;7.578;2022-08-19T07:19:26;99571.31;;;21.67;62.97
47883;BME280;37739;50.350;7.578;2022-08-19T07:21:55;99566.88;;;21.71;63.20
47883;BME280;37739;50.350;7.578;2022-08-19T07:24:23;99569.47;;;21.74;63.32
47883;BME280;37739;50.350;7.578;2022-08-19T07:26:53;99580.59;;;21.90;62.73
47883;BME280;37739;50.350;7.578;2022-08-19T07:29:22;99578.63;;;22.07;62.12
47883;BME280;37739;50.350;7.578;2022-08-19T07:31:50;99583.69;;;22.20;61.96
47883;BME280;37739;50.350;7.578;2022-08-19T07:34:18;99584.66;;;22.12;62.46
47883;BME280;37739;50.350;7.578;2022-08-19T07:36:46;99587.22;;;22.15;62.13
47883;BME280;37739;50.350;7.578;2022-08-19T07:39:18;99583.72;;;22.16;61.99
47883;BME280;37739;50.350;7.578;2022-08-19T07:41:45;99578.28;;;22.33;62.07
47883;BME280;37739;50.350;7.578;2022-08-19T07:44:14;99588.72;;;22.37;62.21
47883;BME280;37739;50.350;7.578;2022-08-19T07:46:44;99590.69;;;22.18;62.89
47883;BME280;37739;50.350;7.578;2022-08-19T07:49:12;99583.53;;;22.32;61.93
47883;BME280;37739;50.350;7.578;2022-08-19T07:51:51;99588.72;;;22.35;62.62
47883;BME280;37739;50.350;7.578;2022-08-19T07:54:23;99582.66;;;22.34;62.63
47883;BME280;37739;50.350;7.578;2022-08-19T07:56:50;99579.94;;;22.39;62.50
47883;BME280;37739;50.350;7.578;2022-08-19T07:59:18;99584.25;;;22.42;63.22
47883;BME280;37739;50.350;7.578;2022-08-19T08:01:47;99574.06;;;22.23;63.17
47883;BME280;37739;50.350;7.578;2022-08-19T08:04:15;99580.16;;;22.22;64.04
47883;BME280;37739;50.350;7.578;2022-08-19T08:06:59;99577.63;;;22.16;63.86
47883;BME280;37739;50.350;7.578;2022-08-19T08:09:45;99580.22;;;22.19;63.72
47883;BME280;37739;50.350;7.578;2022-08-19T08:12:15;99574.03;;;22.26;63.79
47883;BME280;37739;50.350;7.578;2022-08-19T08:14:47;99571.41;;;22.26;63.54
47883;BME280;37739;50.350;7.578;2022-08-19T08:17:15;99573.16;;;22.29;63.74
47883;BME280;37739;50.350;7.578;2022-08-19T08:19:44;99578.38;;;22.29;64.10
47883;BME280;37739;50.350;7.578;2022-08-19T08:22:11;99575.66;;;22.35;63.48
47883;BME280;37739;50.350;7.578;2022-08-19T08:25:01;99584.09;;;22.54;62.94
47883;BME280;37739;50.350;7.578;2022-08-19T08:27:28;99575.97;;;22.71;62.36
47883;BME280;37739;50.350;7.578;2022-08-19T08:29:56;99588.03;;;22.81;62.17
47883;BME280;37739;50.350;7.578;2022-08-19T08:32:21;99582.63;;;22.90;61.85
47883;BME280;37739;50.350;7.578;2022-08-19T08:34:49;99584.19;;;23.01;61.63
47883;BME280;37739;50.350;7.578;2022-08-19T08:37:14;99577.28;;;22.98;61.62
47883;BME280;37739;50.350;7.578;2022-08-19T08:39:42;99584.13;;;23.05;61.58
47883;BME280;37739;50.350;7.578;2022-08-19T08:45:00;99578.00;;;23.08;61.30
47883;BME280;37739;50.350;7.578;2022-08-19T08:47:32;99584.75;;;23.21;60.81
47883;BME280;37739;50.350;7.578;2022-08-19T08:50:06;99583.56;;;23.38;60.44
47883;BME280;37739;50.350;7.578;2022-08-19T08:52:39;99580.50;;;23.61;59.49
47883;BME280;37739;50.350;7.578;2022-08-19T08:55:16;99583.66;;;23.78;58.98
47883;BME280;37739;50.350;7.578;2022-08-19T09:00:37;99576.63;;;24.22;57.74
47883;BME280;37739;50.350;7.578;2022-08-19T09:03:06;99579.03;;;24.32;57.45
47883;BME280;37739;50.350;7.578;2022-08-19T09:06:07;99574.22;;;24.52;56.01
47883;BME280;37739;50.350;7.578;2022-08-19T09:14:02;99571.88;;;24.77;55.32
47883;BME280;37739;50.350;7.578;2022-08-19T09:16:30;99567.84;;;24.98;55.29
47883;BME280;37739;50.350;7.578;2022-08-19T09:19:02;99573.16;;;24.95;54.34
47883;BME280;37739;50.350;7.578;2022-08-19T09:21:28;99576.19;;;25.13;54.33
47883;BME280;37739;50.350;7.578;2022-08-19T09:23:53;99570.78;;;25.19;53.06
47883;BME280;37739;50.350;7.578;2022-08-19T09:26:21;99573.56;;;25.13;52.06
47883;BME280;37739;50.350;7.578;2022-08-19T09:28:51;99568.91;;;25.25;52.17
47883;BME280;37739;50.350;7.578;2022-08-19T09:31:26;99566.19;;;25.28;52.09
47883;BME280;37739;50.350;7.578;2022-08-19T09:33:54;99563.06;;;25.47;52.02
47883;BME280;37739;50.350;7.578;2022-08-19T09:36:24;99554.88;;;25.58;51.50
47883;BME280;37739;50.350;7.578;2022-08-19T09:38:51;99561.25;;;25.79;50.82
47883;BME280;37739;50.350;7.578;2022-08-19T09:41:24;99560.81;;;25.96;49.46
47883;BME280;37739;50.350;7.578;2022-08-19T09:43:52;99557.59;;;26.16;50.40
47883;BME280;37739;50.350;7.578;2022-08-19T09:46:21;99559.25;;;26.18;49.16
47883;BME280;37739;50.350;7.578;2022-08-19T09:48:47;99562.19;;;25.78;49.75
47883;BME280;37739;50.350;7.578;2022-08-19T09:51:23;99561.19;;;25.82;49.37
47883;BME280;37739;50.350;7.578;2022-08-19T09:53:50;99549.44;;;25.95;49.30
47883;BME280;37739;50.350;7.578;2022-08-19T09:56:18;99552.69;;;26.32;49.06
47883;BME280;37739;50.350;7.578;2022-08-19T09:58:46;99556.91;;;26.37;47.98
47883;BME280;37739;50.350;7.578;2022-08-19T10:01:26;99556.41;;;26.53;46.82
47883;BME280;37739;50.350;7.578;2022-08-19T10:03:57;99548.00;;;26.70;47.30
47883;BME280;37739;50.350;7.578;2022-08-19T10:06:26;99547.84;;;26.74;46.90
47883;BME280;37739;50.350;7.578;2022-08-19T10:08:57;99556.88;;;26.39;47.27
47883;BME280;37739;50.350;7.578;2022-08-19T10:11:22;99554.69;;;26.52;47.76
47883;BME280;37739;50.350;7.578;2022-08-19T10:13:48;99559.16;;;26.76;47.16
47883;BME280;37739;50.350;7.578;2022-08-19T10:16:20;99553.69;;;26.82;46.14
47883;BME280;37739;50.350;7.578;2022-08-19T10:18:48;99548.19;;;27.15;45.80
47883;BME280;37739;50.350;7.578;2022-08-19T10:21:17;99550.47;;;27.26;45.56
47883;BME280;37739;50.350;7.578;2022-08-19T10:23:46;99542.13;;;27.38;44.62
47883;BME280;37739;50.350;7.578;2022-08-19T10:26:16;99549.66;;;27.49;43.82
47883;BME280;37739;50.350;7.578;2022-08-19T10:28:42;99544.97;;;27.32;44.22
47883;BME280;37739;50.350;7.578;2022-08-19T10:31:11;99536.47;;;27.26;44.67
47883;BME280;37739;50.350;7.578;2022-08-19T10:33:37;99540.75;;;27.52;45.14
47883;BME280;37739;50.350;7.578;2022-08-19T10:36:06;99535.94;;;27.39;44.74
47883;BME280;37739;50.350;7.578;2022-08-19T10:38:35;99538.81;;;27.33;44.70
47883;BME280;37739;50.350;7.578;2022-08-19T10:41:18;99531.03;;;27.54;44.23
47883;BME280;37739;50.350;7.578;2022-08-19T10:43:50;99528.50;;;27.74;43.19
47883;BME280;37739;50.350;7.578;2022-08-19T10:46:20;99527.72;;;27.96;42.67
47883;BME280;37739;50.350;7.578;2022-08-19T10:48:46;99532.19;;;27.94;43.40
47883;BME280;37739;50.350;7.578;2022-08-19T10:51:12;99524.31;;;27.92;43.73
47883;BME280;37739;50.350;7.578;2022-08-19T10:53:56;99522.25;;;27.77;42.77
47883;BME280;37739;50.350;7.578;2022-08-19T10:56:25;99521.59;;;27.95;42.80
47883;BME280;37739;50.350;7.578;2022-08-19T10:59:12;99521.09;;;27.84;42.20
47883;BME280;37739;50.350;7.578;2022-08-19T11:01:39;99530.63;;;27.65;42.68
47883;BME280;37739;50.350;7.578;2022-08-19T11:04:07;99520.03;;;27.90;42.60
47883;BME280;37739;50.350;7.578;2022-08-19T11:06:37;99512.56;;;28.45;42.24
47883;BME280;37739;50.350;7.578;2022-08-19T11:09:04;99522.84;;;28.73;40.29
47883;BME280;37739;50.350;7.578;2022-08-19T11:11:29;99518.50;;;28.72;40.74
47883;BME280;37739;50.350;7.578;2022-08-19T11:13:55;99519.16;;;28.57;41.11
47883;BME280;37739;50.350;7.578;2022-08-19T11:16:25;99520.31;;;28.28;41.28
47883;BME280;37739;50.350;7.578;2022-08-19T11:18:56;99517.06;;;28.43;41.15
47883;BME280;37739;50.350;7.578;2022-08-19T11:21:29;99519.56;;;28.02;41.37
47883;BME280;37739;50.350;7.578;2022-08-19T11:23:59;99513.88;;;27.91;41.01
47883;BME280;37739;50.350;7.578;2022-08-19T11:26:25;99506.38;;;28.24;41.17
47883;BME280;37739;50.350;7.578;2022-08-19T11:28:51;99498.63;;;28.64;40.42
47883;BME280;37739;50.350;7.578;2022-08-19T11:31:21;99507.22;;;28.89;40.24
47883;BME280;37739;50.350;7.578;2022-08-19T11:33:47;99496.84;;;29.05;38.26
47883;BME280;37739;50.350;7.578;2022-08-19T11:36:18;99491.44;;;29.48;38.70
47883;BME280;37739;50.350;7.578;2022-08-19T11:38:48;99491.22;;;29.71;37.67
47883;BME280;37739;50.350;7.578;2022-08-19T11:41:16;99489.13;;;29.80;38.71
47883;BME280;37739;50.350;7.578;2022-08-19T11:43:44;99479.16;;;29.85;38.08
47883;BME280;37739;50.350;7.578;2022-08-19T11:46:16;99478.09;;;29.70;37.66
47883;BME280;37739;50.350;7.578;2022-08-19T11:48:42;99484.09;;;29.54;36.87
47883;BME280;37739;50.350;7.578;2022-08-19T11:51:13;99489.47;;;29.13;38.21
47883;BME280;37739;50.350;7.578;2022-08-19T11:53:39;99483.66;;;29.45;38.42
47883;BME280;37739;50.350;7.578;2022-08-19T11:56:06;99478.72;;;29.56;37.56
47883;BME280;37739;50.350;7.578;2022-08-19T11:58:39;99480.25;;;29.81;37.36
47883;BME280;37739;50.350;7.578;2022-08-19T12:01:16;99491.28;;;30.08;36.14
47883;BME280;37739;50.350;7.578;2022-08-19T12:03:45;99481.00;;;29.64;35.78
47883;BME280;37739;50.350;7.578;2022-08-19T12:06:15;99481.97;;;29.82;34.82
47883;BME280;37739;50.350;7.578;2022-08-19T12:08:44;99492.00;;;30.11;34.75
47883;BME280;37739;50.350;7.578;2022-08-19T12:11:13;99490.38;;;30.63;34.96
47883;BME280;37739;50.350;7.578;2022-08-19T12:13:41;99488.91;;;30.40;33.61
47883;BME280;37739;50.350;7.578;2022-08-19T12:16:21;99492.41;;;30.58;33.66
47883;BME280;37739;50.350;7.578;2022-08-19T12:18:52;99486.94;;;30.78;33.54
47883;BME280;37739;50.350;7.578;2022-08-19T12:21:26;99486.69;;;30.83;33.83
47883;BME280;37739;50.350;7.578;2022-08-19T12:23:55;99486.31;;;30.73;34.44
47883;BME280;37739;50.350;7.578;2022-08-19T12:26:23;99475.69;;;29.84;34.87
47883;BME280;37739;50.350;7.578;2022-08-19T12:28:52;99475.38;;;29.90;34.38
47883;BME280;37739;50.350;7.578;2022-08-19T12:31:17;99480.19;;;30.55;34.93
47883;BME280;37739;50.350;7.578;2022-08-19T12:33:46;99475.34;;;30.63;33.92
47883;BME280;37739;50.350;7.578;2022-08-19T12:36:15;99474.09;;;30.70;33.74
47883;BME280;37739;50.350;7.578;2022-08-19T12:38:44;99472.16;;;30.39;33.42
47883;BME280;37739;50.350;7.578;2022-08-19T12:41:17;99468.28;;;30.27;34.31
47883;BME280;37739;50.350;7.578;2022-08-19T12:43:43;99467.78;;;30.56;34.11
47883;BME280;37739;50.350;7.578;2022-08-19T12:46:12;99469.81;;;30.85;33.25
47883;BME280;37739;50.350;7.578;2022-08-19T12:48:38;99459.44;;;30.98;33.30
47883;BME280;37739;50.350;7.578;2022-08-19T12:51:12;99462.09;;;30.98;33.32
47883;BME280;37739;50.350;7.578;2022-08-19T12:53:40;99449.97;;;30.94;33.59
47883;BME280;37739;50.350;7.578;2022-08-19T12:56:10;99459.28;;;30.14;35.00
47883;BME280;37739;50.350;7.578;2022-08-19T12:58:36;99449.34;;;30.54;34.29
47883;BME280;37739;50.350;7.578;2022-08-19T13:01:09;99458.31;;;30.51;33.62
47883;BME280;37739;50.350;7.578;2022-08-19T13:03:38;99445.44;;;30.61;32.82
47883;BME280;37739;50.350;7.578;2022-08-19T13:06:03;99444.03;;;31.06;33.89
47883;BME280;37739;50.350;7.578;2022-08-19T13:08:29;99441.69;;;31.34;32.49
47883;BME280;37739;50.350;7.578;2022-08-19T13:10:56;99446.84;;;31.68;32.62
47883;BME280;37739;50.350;7.578;2022-08-19T13:13:26;99436.88;;;31.40;31.93
47883;BME280;37739;50.350;7.578;2022-08-19T13:16:00;99435.34;;;31.36;31.72
47883;BME280;37739;50.350;7.578;2022-08-19T13:18:27;99444.81;;;30.56;33.64
47883;BME280;37739;50.350;7.578;2022-08-19T13:20:55;99435.31;;;29.81;34.23
47883;BME280;37739;50.350;7.578;2022-08-19T13:23:23;99439.91;;;29.39;35.21